Terminal Aerodrome Forecast
Issued by NWS Austin/San Antonio, TX

Home | Current Version | Previous Version | Text Only | Print | Product List | Glossary On
Versions: 1 2 3 4 5 6 7 8 9 10 11 12
000
FTUS44 KEWX 161147
TAFDRT
TAF
KDRT 161147Z 1612/1712 00000KT P6SM SCT070 BKN150
     FM161400 14009KT 5SM -RA OVC025
     FM170000 11005KT 5SM BR OVC015
     FM170200 10005KT 4SM BR OVC007=

USA.gov is the U.S. government's official web portal to all federal, state and local government web resources and services.